Time;durP1;ratioP1;P1;durP2;ratioP2;P2;SDS_P1;SDS_P2;PMS_P1;PMS_P2;Temp;Humidity;BMP_temperature;BMP_pressure;BME280_temperature;BME280_humidity;BME280_pressure;Samples;Min_cycle;Max_cycle;Signal;HPM_P1;HPM_P2
2023/11/06 00:07:58;;;;;;;15.20;9.20;;;;;;;12.53;100.00;97595.75;682014;1264;138384;-81
2023/11/06 00:23:03;;;;;;;16.50;9.70;;;;;;;12.51;100.00;97611.05;682076;1260;169978;-81
2023/11/06 00:38:07;;;;;;;16.00;9.40;;;;;;;12.55;100.00;97621.44;681946;1269;140271;-81
2023/11/06 00:53:10;;;;;;;14.20;7.70;;;;;;;12.61;100.00;97635.41;682248;1261;139029;-81
2023/11/06 01:08:14;;;;;;;20.40;11.50;;;;;;;12.67;100.00;97646.74;682115;1264;139345;-80
2023/11/06 01:23:18;;;;;;;13.20;7.80;;;;;;;12.55;100.00;97667.39;682101;1260;139588;-82
2023/11/06 01:38:21;;;;;;;9.40;6.90;;;;;;;12.38;100.00;97670.18;682094;1262;139202;-81
2023/11/06 01:53:27;;;;;;;10.50;7.40;;;;;;;12.41;100.00;97678.18;682148;1259;138645;-80
2023/11/06 02:08:32;;;;;;;8.20;5.20;;;;;;;12.37;100.00;97692.91;682167;1264;139388;-81
2023/11/06 02:23:37;;;;;;;7.90;4.80;;;;;;;12.52;100.00;97708.42;682372;1262;138205;-80
2023/11/06 02:38:40;;;;;;;7.20;4.80;;;;;;;12.50;100.00;97722.50;682076;1259;138689;-80
2023/11/06 02:53:44;;;;;;;7.60;5.00;;;;;;;12.51;100.00;97739.41;682492;1262;139293;-80
2023/11/06 03:08:47;;;;;;;5.80;4.40;;;;;;;12.52;100.00;97758.30;682028;1263;139676;-80
2023/11/06 03:23:50;;;;;;;5.30;4.00;;;;;;;12.54;100.00;97784.95;682419;1262;138200;-80
2023/11/06 03:38:54;;;;;;;7.70;6.40;;;;;;;12.54;100.00;97802.58;682287;1262;138828;-81
2023/11/06 03:53:57;;;;;;;4.70;3.40;;;;;;;12.51;100.00;97817.86;682464;1274;138495;-82
2023/11/06 04:09:01;;;;;;;2.90;2.40;;;;;;;12.45;100.00;97836.23;682205;1259;139214;-79
2023/11/06 04:24:06;;;;;;;3.50;2.60;;;;;;;12.44;100.00;97861.76;682379;1258;139818;-80
2023/11/06 04:39:12;;;;;;;2.90;2.20;;;;;;;12.33;100.00;97888.52;682234;1262;139515;-82
2023/11/06 04:54:15;;;;;;;4.50;2.90;;;;;;;12.32;100.00;97918.33;682443;1262;139969;-80
2023/11/06 05:09:19;;;;;;;5.70;3.50;;;;;;;12.37;100.00;97950.77;682215;1258;139170;-82
2023/11/06 05:24:23;;;;;;;4.70;2.80;;;;;;;12.47;100.00;97981.86;682659;1262;139096;-80
2023/11/06 05:39:27;;;;;;;3.70;2.60;;;;;;;12.55;100.00;98005.48;682415;1261;138635;-83
2023/11/06 05:54:31;;;;;;;6.20;4.80;;;;;;;12.64;100.00;98030.24;682432;1262;139626;-82
2023/11/06 06:09:36;;;;;;;6.30;4.10;;;;;;;12.58;100.00;98060.67;682100;1264;138728;-83
2023/11/06 06:24:40;;;;;;;8.90;4.30;;;;;;;12.44;100.00;98088.30;682362;1263;139134;-82
2023/11/06 06:39:45;;;;;;;4.40;3.50;;;;;;;12.44;100.00;98112.64;682086;1258;139098;-82
2023/11/06 06:54:48;;;;;;;8.20;5.10;;;;;;;12.28;100.00;98135.59;682359;1262;138584;-82
2023/11/06 07:09:52;;;;;;;8.90;4.90;;;;;;;12.28;100.00;98163.52;682362;1259;138913;-82
2023/11/06 07:24:56;;;;;;;7.80;4.40;;;;;;;12.40;100.00;98179.30;682659;1259;139574;-83
2023/11/06 07:40:00;;;;;;;8.20;5.40;;;;;;;12.54;100.00;98200.14;682510;1262;139260;-82
2023/11/06 07:55:04;;;;;;;21.50;10.60;;;;;;;12.48;100.00;98223.98;682609;1265;138677;-83
2023/11/06 08:10:14;;;;;;;6.20;3.50;;;;;;;12.62;100.00;98248.71;682568;1262;138772;-84
2023/11/06 08:25:19;;;;;;;3.30;2.80;;;;;;;12.61;100.00;98282.98;682640;1262;139252;-86
2023/11/06 08:40:23;;;;;;;4.50;2.90;;;;;;;12.73;100.00;98314.64;682583;1264;138418;-86
2023/11/06 08:55:26;;;;;;;6.30;3.20;;;;;;;12.66;100.00;98348.64;682474;1263;139020;-86
2023/11/06 09:10:30;;;;;;;15.90;8.90;;;;;;;12.70;100.00;98376.17;682511;1262;138696;-85
2023/11/06 09:25:33;;;;;;;7.90;5.50;;;;;;;12.69;100.00;98406.12;682438;1263;138982;-84
2023/11/06 09:40:37;;;;;;;10.40;4.70;;;;;;;12.73;100.00;98435.05;682464;1263;139549;-83
2023/11/06 09:55:41;;;;;;;6.40;3.30;;;;;;;12.90;100.00;98468.09;682496;1260;140405;-84
2023/11/06 10:10:58;;;;;;;7.70;3.40;;;;;;;12.84;100.00;98495.04;682530;1262;139491;-84
2023/11/06 10:26:13;;;;;;;18.60;9.50;;;;;;;12.97;99.17;98521.60;682423;1262;140372;-83
2023/11/06 10:41:24;;;;;;;8.70;4.00;;;;;;;13.10;97.10;98528.77;682668;1263;138968;-83
2023/11/06 10:56:30;;;;;;;6.30;3.90;;;;;;;13.22;95.33;98554.02;682527;1262;139355;-84
2023/11/06 11:11:33;;;;;;;7.70;4.60;;;;;;;13.28;93.88;98582.23;682627;1262;138335;-83
2023/11/06 11:27:10;;;;;;;11.80;8.40;;;;;;;13.46;91.85;98603.58;682542;1263;140016;-84
2023/11/06 11:42:13;;;;;;;10.60;5.50;;;;;;;13.97;89.30;98613.21;682617;1262;138677;-83
2023/11/06 11:57:17;;;;;;;10.50;5.10;;;;;;;14.04;85.92;98628.13;682499;1262;138652;-82
2023/11/06 12:12:25;;;;;;;12.30;7.80;;;;;;;14.06;84.30;98653.20;682476;1263;137644;-82
2023/11/06 12:27:33;;;;;;;11.60;5.30;;;;;;;14.08;82.59;98676.17;682326;1262;138877;-81
2023/11/06 12:42:37;;;;;;;15.50;8.90;;;;;;;13.93;81.74;98692.70;682538;1262;138971;-82
2023/11/06 12:57:42;;;;;;;9.50;4.40;;;;;;;13.80;81.69;98707.98;682498;1262;139022;-81
2023/11/06 13:12:46;;;;;;;14.40;5.30;;;;;;;14.00;80.63;98737.10;682479;1263;138795;-82
2023/11/06 13:27:56;;;;;;;16.30;9.20;;;;;;;13.97;79.84;98764.70;682488;1262;139478;-82
2023/11/06 13:43:06;;;;;;;10.40;5.20;;;;;;;14.09;79.72;98782.93;682438;1262;138745;-82
2023/11/06 13:58:14;;;;;;;14.00;7.20;;;;;;;14.10;80.57;98806.36;682470;1263;138905;-81
2023/11/06 14:13:24;;;;;;;13.70;6.20;;;;;;;14.06;80.86;98823.11;682386;1263;138728;-80
2023/11/06 14:28:30;;;;;;;13.70;4.70;;;;;;;14.13;81.03;98845.48;682464;1260;139389;-82
2023/11/06 14:43:33;;;;;;;17.20;6.80;;;;;;;14.15;80.03;98869.18;682287;1262;140216;-80
2023/11/06 14:58:37;;;;;;;9.60;4.40;;;;;;;14.09;79.87;98888.20;682390;1263;138851;-80
2023/11/06 15:13:40;;;;;;;5.90;3.30;;;;;;;13.82;80.68;98910.99;682246;1263;139031;-81
2023/11/06 15:28:44;;;;;;;8.20;3.70;;;;;;;13.67;81.53;98933.11;682621;1263;139083;-82
2023/11/06 15:56:37;;;;;;;14.80;6.10;;;;;;;13.44;84.08;98969.06;652747;1298;544800;-83
2023/11/06 16:11:40;;;;;;;9.10;4.00;;;;;;;13.35;84.88;98994.05;666397;1286;138600;-82
2023/11/06 16:26:46;;;;;;;17.20;9.90;;;;;;;13.19;86.22;99012.98;670679;1265;139056;-81
2023/11/06 16:41:49;;;;;;;13.90;6.20;;;;;;;12.86;87.92;99037.90;675833;1266;138466;-80
2023/11/06 16:56:53;;;;;;;15.10;7.20;;;;;;;12.67;89.24;99056.01;669550;1266;139036;-81
2023/11/06 17:11:56;;;;;;;40.40;21.20;;;;;;;12.56;90.08;99089.19;670974;1264;138684;-81
2023/11/06 17:27:00;;;;;;;46.90;23.70;;;;;;;12.58;89.59;99112.00;672376;1263;138853;-81
2023/11/06 17:42:04;;;;;;;10.50;5.20;;;;;;;12.60;89.81;99133.35;671370;1267;138022;-81
2023/11/06 17:57:09;;;;;;;11.80;5.00;;;;;;;12.60;91.20;99154.14;673068;1266;138867;-82
2023/11/06 18:12:14;;;;;;;49.80;21.30;;;;;;;12.61;92.18;99179.13;673332;1278;138004;-81
2023/11/06 18:27:18;;;;;;;17.80;7.90;;;;;;;12.57;92.38;99200.26;673192;1264;138636;-81
2023/11/06 18:42:22;;;;;;;59.90;18.50;;;;;;;12.52;92.42;99222.02;677574;1266;138509;-81
2023/11/06 18:57:25;;;;;;;27.60;9.00;;;;;;;12.68;91.73;99235.91;671924;1266;139035;-82
2023/11/06 19:12:28;;;;;;;21.70;6.60;;;;;;;12.67;91.40;99253.77;668624;1266;138432;-81
2023/11/06 19:27:32;;;;;;;40.00;11.10;;;;;;;12.37;91.99;99273.16;675144;1263;138942;-80
2023/11/06 19:42:35;;;;;;;43.20;11.60;;;;;;;12.12;92.90;99296.09;672358;1267;138664;-81
2023/11/06 19:57:40;;;;;;;18.00;8.30;;;;;;;11.98;93.21;99313.09;672570;1266;139814;-80
2023/11/06 20:12:44;;;;;;;21.00;7.90;;;;;;;11.85;93.49;99331.81;673112;1275;139096;-79
2023/11/06 20:27:47;;;;;;;13.60;5.50;;;;;;;11.68;93.93;99351.50;675270;1261;138810;-79
2023/11/06 20:42:51;;;;;;;25.10;11.30;;;;;;;11.46;95.00;99360.80;676750;1264;139107;-80
2023/11/06 20:57:56;;;;;;;13.00;6.60;;;;;;;11.49;94.68;99374.42;681666;1266;139335;-80
2023/11/06 21:13:00;;;;;;;8.80;3.60;;;;;;;11.64;94.48;99385.67;675940;1264;138663;-83
2023/11/06 21:28:06;;;;;;;9.00;3.70;;;;;;;11.80;94.10;99402.86;680796;1261;139326;-80
2023/11/06 21:43:09;;;;;;;6.90;3.10;;;;;;;11.94;93.39;99421.80;680206;1263;138585;-81
2023/11/06 21:58:17;;;;;;;6.40;3.20;;;;;;;11.90;95.10;99457.96;681352;1260;138202;-82
2023/11/06 22:13:31;;;;;;;4.30;2.40;;;;;;;11.66;98.59;99466.02;682006;1262;139497;-81
2023/11/06 22:28:35;;;;;;;7.00;2.90;;;;;;;11.66;98.65;99474.15;676996;1262;138715;-81
2023/11/06 22:43:38;;;;;;;5.20;2.70;;;;;;;11.72;97.62;99494.17;676485;1262;138875;-81
2023/11/06 22:58:41;;;;;;;3.90;2.60;;;;;;;11.84;96.35;99499.74;669379;1265;138141;-81
2023/11/06 23:13:44;;;;;;;5.80;2.90;;;;;;;11.74;95.94;99503.20;677422;1262;138826;-81
2023/11/06 23:28:48;;;;;;;6.60;3.80;;;;;;;11.43;97.64;99506.61;675951;1273;138475;-82
2023/11/06 23:43:51;;;;;;;9.00;4.80;;;;;;;11.22;98.29;99506.11;677713;1260;138914;-81
2023/11/06 23:58:56;;;;;;;11.20;5.20;;;;;;;11.05;99.89;99513.50;673105;1262;138385;-80
